Time;durP1;ratioP1;P1;durP2;ratioP2;P2;SDS_P1;SDS_P2;PMS_P1;PMS_P2;Temp;Humidity;BMP_temperature;BMP_pressure;BME280_temperature;BME280_humidity;BME280_pressure;Samples;Min_cycle;Max_cycle;Signal;HPM_P1;HPM_P2
2023/07/21 00:01:08;;;;;;;5.40;4.50;;;;;;;13.50;100.00;98759.54;273571;1269;22370;-78
2023/07/21 00:07:32;;;;;;;7.10;4.80;;;;;;;13.50;100.00;98758.73;273502;1269;22277;-78
2023/07/21 00:13:55;;;;;;;5.80;4.20;;;;;;;13.46;100.00;98754.35;273642;1258;22305;-78
2023/07/21 00:20:21;;;;;;;7.90;4.40;;;;;;;13.36;100.00;98753.45;273597;1269;23266;-78
2023/07/21 00:26:24;;;;;;;6.80;4.30;;;;;;;13.28;100.00;98753.25;272440;1269;23333;-78
2023/07/21 00:32:26;;;;;;;6.10;4.60;;;;;;;13.20;100.00;98751.94;272571;1269;23394;-78
2023/07/21 00:38:28;;;;;;;7.30;3.90;;;;;;;13.16;100.00;98753.29;272896;1269;23481;-82
2023/07/21 00:44:50;;;;;;;8.40;4.60;;;;;;;13.15;100.00;98752.89;273627;1268;22280;-79
2023/07/21 00:50:53;;;;;;;7.90;3.70;;;;;;;13.17;100.00;98747.23;272642;1269;22187;-78
2023/07/21 00:57:15;;;;;;;9.80;3.90;;;;;;;13.18;100.00;98742.91;272725;1253;22554;-78
2023/07/21 01:03:17;;;;;;;9.00;4.40;;;;;;;13.20;100.00;98737.95;273518;1268;22401;-79
2023/07/21 01:09:22;;;;;;;6.80;4.00;;;;;;;13.14;100.00;98734.66;272601;1268;25387;-79
2023/07/21 01:15:26;;;;;;;5.40;3.90;;;;;;;13.00;100.00;98730.92;271508;1264;22554;-79
2023/07/21 01:21:36;;;;;;;4.70;4.20;;;;;;;12.89;100.00;98720.90;270844;1269;22331;-79
2023/07/21 01:27:42;;;;;;;11.80;4.70;;;;;;;12.81;100.00;98726.02;271019;1269;22594;-79
2023/07/21 01:34:06;;;;;;;7.60;4.60;;;;;;;12.78;100.00;98727.20;271132;1269;22513;-79
2023/07/21 01:40:32;;;;;;;5.20;4.70;;;;;;;12.74;100.00;98726.74;272623;1262;23251;-80
2023/07/21 01:46:34;;;;;;;6.10;4.00;;;;;;;12.71;100.00;98724.87;273570;1269;23498;-81
2023/07/21 01:52:36;;;;;;;5.00;4.00;;;;;;;12.68;100.00;98715.77;272921;1269;23878;-80
2023/07/21 01:58:38;;;;;;;5.00;3.50;;;;;;;12.59;100.00;98712.80;273277;1259;23290;-79
2023/07/21 02:04:49;;;;;;;18.00;4.20;;;;;;;12.58;100.00;98719.93;271316;1253;22775;-79
2023/07/21 02:10:52;;;;;;;11.80;4.40;;;;;;;12.67;100.00;98726.44;271126;1269;22619;-79
2023/07/21 02:17:16;;;;;;;5.80;4.60;;;;;;;12.77;100.00;98718.73;270824;1269;22608;-80
2023/07/21 02:23:18;;;;;;;6.20;3.70;;;;;;;12.76;100.00;98719.29;271656;1269;22190;-79
2023/07/21 02:29:25;;;;;;;4.70;3.70;;;;;;;12.75;100.00;98720.31;273438;1269;22401;-79
2023/07/21 02:35:27;;;;;;;6.60;4.10;;;;;;;12.73;100.00;98721.80;270696;1269;22205;-79
2023/07/21 02:41:44;;;;;;;4.60;3.60;;;;;;;12.63;100.00;98721.11;270928;1262;22530;-79
2023/07/21 02:47:50;;;;;;;6.00;3.60;;;;;;;12.51;100.00;98722.77;271536;1265;23430;-81
2023/07/21 02:53:52;;;;;;;17.40;4.80;;;;;;;12.42;100.00;98731.25;271374;1269;22590;-79
2023/07/21 02:59:54;;;;;;;7.10;4.00;;;;;;;12.33;100.00;98730.86;271711;1269;22601;-79
2023/07/21 03:06:05;;;;;;;6.90;3.60;;;;;;;12.38;100.00;98739.02;271669;1269;23049;-79
2023/07/21 03:12:07;;;;;;;6.00;3.70;;;;;;;12.42;100.00;98743.80;273148;1259;22211;-79
2023/07/21 03:18:35;;;;;;;4.90;4.00;;;;;;;12.49;100.00;98747.25;273415;1265;149003;-80
2023/07/21 03:24:45;;;;;;;7.90;3.70;;;;;;;12.52;100.00;98752.90;273669;1268;22328;-79
2023/07/21 03:30:57;;;;;;;7.30;3.60;;;;;;;12.60;100.00;98751.09;273489;1268;22202;-80
2023/07/21 03:37:07;;;;;;;5.50;3.30;;;;;;;12.68;100.00;98747.55;273489;1269;22443;-79
2023/07/21 03:43:15;;;;;;;6.00;4.20;;;;;;;12.67;100.00;98747.39;273418;1269;22527;-79
2023/07/21 03:49:17;;;;;;;5.70;3.30;;;;;;;12.66;100.00;98751.95;273407;1260;22268;-80
2023/07/21 03:55:29;;;;;;;4.60;4.00;;;;;;;12.74;100.00;98754.52;273530;1269;22186;-79
2023/07/21 04:01:30;;;;;;;6.60;3.90;;;;;;;12.83;100.00;98748.86;273449;1269;25068;-80
2023/07/21 04:07:32;;;;;;;8.20;4.30;;;;;;;12.92;100.00;98746.00;273642;1269;22261;-79
2023/07/21 04:13:39;;;;;;;6.50;4.80;;;;;;;12.97;100.00;98742.00;271691;1269;22183;-78
2023/07/21 04:19:40;;;;;;;5.90;4.00;;;;;;;12.99;100.00;98736.98;271970;1269;22455;-78
2023/07/21 04:25:44;;;;;;;6.20;4.30;;;;;;;13.08;100.00;98727.31;272788;1269;23355;-79
2023/07/21 04:32:05;;;;;;;8.10;4.40;;;;;;;13.16;100.00;98724.38;273285;1262;23412;-78
2023/07/21 04:38:08;;;;;;;8.40;4.60;;;;;;;13.19;100.00;98718.80;273257;1269;23016;-78
2023/07/21 04:44:15;;;;;;;5.50;4.20;;;;;;;13.27;100.00;98716.18;273361;1269;22257;-78
2023/07/21 04:50:22;;;;;;;6.00;4.00;;;;;;;13.40;100.00;98727.83;273266;1269;22472;-78
2023/07/21 04:56:45;;;;;;;6.20;4.00;;;;;;;13.58;100.00;98733.70;273206;1269;22346;-78
2023/07/21 05:02:49;;;;;;;8.90;4.20;;;;;;;13.74;100.00;98729.84;272539;1269;22174;-78
2023/07/21 05:08:51;;;;;;;5.70;4.20;;;;;;;13.88;100.00;98724.41;273429;1268;22240;-78
2023/07/21 05:14:53;;;;;;;12.30;5.70;;;;;;;14.06;100.00;98728.77;273429;1269;22458;-78
2023/07/21 05:21:18;;;;;;;6.50;4.70;;;;;;;14.21;100.00;98736.86;271902;1269;23468;-79
2023/07/21 05:27:33;;;;;;;9.20;4.60;;;;;;;14.34;100.00;98743.61;272774;1269;22393;-78
2023/07/21 05:33:35;;;;;;;7.70;4.20;;;;;;;14.46;100.00;98750.13;273293;1268;22214;-78
2023/07/21 05:39:39;;;;;;;7.40;3.70;;;;;;;14.62;100.00;98759.20;273324;1268;22196;-79
2023/07/21 05:45:42;;;;;;;5.20;4.20;;;;;;;14.74;100.00;98757.52;273239;1269;23097;-79
2023/07/21 05:51:46;;;;;;;11.30;4.80;;;;;;;14.85;100.00;98766.14;273244;1269;22195;-78
2023/07/21 05:58:00;;;;;;;12.10;6.30;;;;;;;15.02;100.00;98752.75;273283;1262;22366;-78
2023/07/21 06:04:04;;;;;;;8.50;5.40;;;;;;;15.20;100.00;98747.67;273521;1269;22431;-79
2023/07/21 06:10:06;;;;;;;7.40;2.70;;;;;;;15.37;100.00;98749.70;271143;1269;22850;-78
2023/07/21 06:16:16;;;;;;;6.00;3.00;;;;;;;15.55;100.00;98744.66;273303;1259;22197;-79
2023/07/21 06:22:38;;;;;;;5.10;3.00;;;;;;;15.78;100.00;98752.64;273479;1269;23386;-78
2023/07/21 06:28:41;;;;;;;4.70;3.10;;;;;;;16.07;100.00;98754.21;273454;1268;22391;-79
2023/07/21 06:34:44;;;;;;;4.60;2.40;;;;;;;16.36;100.00;98751.64;273460;1260;22678;-80
2023/07/21 06:41:05;;;;;;;6.60;3.10;;;;;;;16.58;100.00;98748.38;273440;1269;22136;-79
2023/07/21 06:47:21;;;;;;;11.10;4.70;;;;;;;16.80;100.00;98750.75;273667;1269;23689;-80
2023/07/21 06:53:34;;;;;;;9.90;4.50;;;;;;;16.93;100.00;98767.98;273439;1269;22398;-79
2023/07/21 06:59:56;;;;;;;11.70;5.00;;;;;;;17.03;100.00;98779.02;273474;1269;22192;-79
2023/07/21 07:05:59;;;;;;;7.70;4.20;;;;;;;17.16;100.00;98777.12;273519;1269;22359;-80
2023/07/21 07:12:01;;;;;;;4.60;3.30;;;;;;;17.29;100.00;98771.67;273482;1269;22427;-79
2023/07/21 07:18:04;;;;;;;4.50;2.70;;;;;;;17.38;100.00;98770.77;273541;1269;23818;-80
2023/07/21 07:24:20;;;;;;;3.10;2.20;;;;;;;17.53;100.00;98767.48;273613;1269;22387;-80
2023/07/21 07:30:24;;;;;;;4.30;2.70;;;;;;;17.71;100.00;98764.37;273527;1269;23444;-80
2023/07/21 07:36:25;;;;;;;3.90;3.00;;;;;;;17.82;100.00;98757.56;273569;1269;22760;-80
2023/07/21 07:42:27;;;;;;;3.20;2.40;;;;;;;18.01;100.00;98756.98;273603;1269;22473;-80
2023/07/21 07:48:29;;;;;;;4.80;2.70;;;;;;;18.39;100.00;98760.04;273673;1269;22151;-80
2023/07/21 07:54:34;;;;;;;6.70;3.20;;;;;;;18.66;99.79;98767.48;273674;1268;22180;-80
2023/07/21 08:00:43;;;;;;;4.60;3.30;;;;;;;18.68;98.64;98762.90;273633;1269;23212;-79
2023/07/21 08:06:45;;;;;;;5.70;3.50;;;;;;;18.79;97.65;98757.33;273572;1256;22391;-80
2023/07/21 08:12:47;;;;;;;7.10;3.80;;;;;;;19.09;97.56;98757.65;273555;1257;22389;-79
2023/07/21 08:18:48;;;;;;;4.10;3.00;;;;;;;19.46;96.59;98748.79;273681;1257;22178;-80
2023/07/21 08:24:50;;;;;;;5.90;3.30;;;;;;;19.82;95.33;98736.87;273621;1258;22341;-81
2023/07/21 08:30:52;;;;;;;6.40;3.50;;;;;;;20.13;94.40;98737.52;273563;1269;22404;-80
2023/07/21 08:36:57;;;;;;;3.40;2.60;;;;;;;20.32;93.71;98730.81;273660;1269;22490;-81
2023/07/21 08:43:02;;;;;;;4.20;3.10;;;;;;;20.67;92.35;98730.20;273672;1269;22402;-81
2023/07/21 08:49:24;;;;;;;4.70;3.00;;;;;;;21.01;90.87;98731.36;273435;1260;23069;-81
2023/07/21 08:55:26;;;;;;;4.40;2.80;;;;;;;21.09;90.01;98734.51;273504;1270;23435;-81
2023/07/21 09:01:28;;;;;;;5.40;3.00;;;;;;;21.19;88.96;98727.55;271973;1254;23289;-81
2023/07/21 09:07:30;;;;;;;3.10;2.20;;;;;;;21.32;88.65;98730.94;272352;1269;22393;-81
2023/07/21 09:13:32;;;;;;;4.00;3.10;;;;;;;21.50;85.80;98736.20;273543;1269;22166;-81
2023/07/21 09:19:58;;;;;;;4.80;2.10;;;;;;;21.54;84.39;98730.84;273299;1256;22549;-81
2023/07/21 09:26:00;;;;;;;1.60;1.40;;;;;;;21.70;82.23;98725.63;273427;1269;24022;-81
2023/07/21 09:32:14;;;;;;;2.70;1.70;;;;;;;21.80;79.92;98735.48;273475;1256;22383;-80
2023/07/21 09:38:16;;;;;;;2.50;1.70;;;;;;;21.73;78.74;98731.29;272215;1269;23203;-80
2023/07/21 09:44:18;;;;;;;3.00;1.90;;;;;;;21.81;78.78;98727.02;271705;1269;22582;-80
2023/07/21 09:50:22;;;;;;;3.80;2.00;;;;;;;21.93;79.20;98721.06;270993;1257;22709;-80
2023/07/21 09:56:27;;;;;;;6.80;2.30;;;;;;;21.95;78.70;98717.14;272887;1268;22407;-80
2023/07/21 10:02:29;;;;;;;2.00;1.40;;;;;;;22.01;78.38;98711.02;272242;1269;23924;-81
2023/07/21 10:08:33;;;;;;;2.30;1.40;;;;;;;22.19;77.29;98719.20;271323;1257;23250;-80
2023/07/21 10:14:37;;;;;;;2.50;1.50;;;;;;;22.32;75.64;98722.85;272841;1269;22483;-80
2023/07/21 10:20:44;;;;;;;2.50;1.60;;;;;;;22.35;75.09;98728.13;273521;1267;23763;-80
2023/07/21 10:26:46;;;;;;;2.70;1.60;;;;;;;22.44;75.07;98722.09;273315;1269;22411;-79
2023/07/21 10:32:50;;;;;;;1.80;1.50;;;;;;;22.64;73.88;98719.95;273406;1269;22291;-80
2023/07/21 10:39:00;;;;;;;4.50;1.90;;;;;;;22.75;72.82;98716.94;273448;1256;22541;-80
2023/07/21 10:45:07;;;;;;;3.80;2.10;;;;;;;22.84;73.59;98708.89;270905;1269;22511;-80
2023/07/21 10:51:09;;;;;;;3.10;2.10;;;;;;;22.93;72.07;98707.92;270844;1268;22635;-80
2023/07/21 10:57:34;;;;;;;3.10;2.00;;;;;;;23.01;71.27;98703.34;273116;1269;25142;-80
2023/07/21 11:03:57;;;;;;;3.40;1.80;;;;;;;23.07;71.04;98706.27;273348;1269;22238;-80
2023/07/21 11:10:07;;;;;;;5.70;2.20;;;;;;;22.94;71.78;98703.89;273386;1261;22618;-81
2023/07/21 11:16:29;;;;;;;3.50;1.80;;;;;;;22.83;71.34;98704.70;273526;1269;22209;-80
2023/07/21 11:22:33;;;;;;;6.20;1.90;;;;;;;22.83;70.37;98695.15;273357;1268;22495;-80
2023/07/21 11:28:37;;;;;;;3.50;1.90;;;;;;;22.87;70.47;98684.67;273122;1269;23163;-80
2023/07/21 11:34:39;;;;;;;3.80;1.80;;;;;;;23.01;70.19;98679.12;273218;1256;22337;-80
2023/07/21 11:40:40;;;;;;;2.40;1.50;;;;;;;23.12;69.62;98672.23;273378;1269;23958;-80
2023/07/21 11:46:54;;;;;;;2.80;2.00;;;;;;;23.10;69.15;98670.89;273371;1269;22417;-81
2023/07/21 11:52:58;;;;;;;2.40;1.60;;;;;;;22.98;67.88;98657.80;273208;1255;22454;-80
2023/07/21 11:59:00;;;;;;;2.40;1.60;;;;;;;23.06;67.85;98646.92;273426;1269;23328;-82
2023/07/21 12:05:02;;;;;;;3.30;1.90;;;;;;;23.04;66.96;98645.66;273334;1268;22338;-81
2023/07/21 12:11:03;;;;;;;3.80;2.50;;;;;;;22.91;66.23;98638.40;273494;1264;23630;-82
2023/07/21 12:17:05;;;;;;;4.60;2.00;;;;;;;22.76;64.94;98634.36;273179;1268;22214;-80
2023/07/21 12:23:16;;;;;;;2.50;1.80;;;;;;;22.62;64.45;98642.30;272108;1257;22525;-80
2023/07/21 12:29:17;;;;;;;4.10;2.00;;;;;;;22.54;64.12;98648.05;273106;1259;22419;-80
2023/07/21 12:35:19;;;;;;;2.90;1.70;;;;;;;22.44;63.62;98652.88;273410;1259;23307;-80
2023/07/21 12:41:24;;;;;;;2.90;1.60;;;;;;;22.40;63.61;98656.14;273387;1259;23661;-79
2023/07/21 12:47:26;;;;;;;2.90;1.80;;;;;;;22.49;63.28;98663.59;273476;1253;22186;-80
2023/07/21 12:53:48;;;;;;;2.90;2.00;;;;;;;22.71;63.24;98660.97;272804;1269;22557;-80
2023/07/21 12:59:57;;;;;;;2.60;1.80;;;;;;;22.79;63.36;98655.27;272995;1269;22274;-80
2023/07/21 13:05:59;;;;;;;3.80;2.00;;;;;;;22.87;62.28;98644.95;273499;1269;22230;-80
2023/07/21 13:12:01;;;;;;;5.00;2.00;;;;;;;22.91;61.06;98637.69;273487;1269;23763;-79
2023/07/21 13:18:04;;;;;;;3.00;1.90;;;;;;;22.88;61.04;98639.02;273507;1257;22189;-80
2023/07/21 13:24:15;;;;;;;3.70;1.90;;;;;;;22.91;60.96;98637.04;273501;1267;22410;-80
2023/07/21 13:30:19;;;;;;;2.20;1.70;;;;;;;22.96;61.80;98637.88;273460;1258;23442;-79
2023/07/21 13:36:22;;;;;;;3.50;1.90;;;;;;;22.92;61.87;98629.90;272481;1268;23183;-79
2023/07/21 13:42:45;;;;;;;2.10;1.70;;;;;;;22.82;61.40;98617.81;272711;1260;23057;-81
2023/07/21 13:48:47;;;;;;;6.60;2.30;;;;;;;22.73;62.24;98603.90;273144;1268;23688;-80
2023/07/21 13:54:49;;;;;;;2.60;1.80;;;;;;;22.66;62.03;98606.34;273358;1268;22483;-81
2023/07/21 14:00:51;;;;;;;3.80;2.40;;;;;;;22.53;61.93;98607.29;273477;1269;22578;-80
2023/07/21 14:06:53;;;;;;;4.70;2.20;;;;;;;22.42;62.17;98603.20;272987;1269;22413;-79
2023/07/21 14:12:55;;;;;;;4.00;2.40;;;;;;;22.31;62.72;98606.81;272710;1268;22681;-79
2023/07/21 14:18:58;;;;;;;7.20;2.50;;;;;;;22.20;63.26;98599.54;272811;1269;22376;-80
2023/07/21 14:24:59;;;;;;;4.00;1.90;;;;;;;22.12;64.25;98598.52;273232;1256;22380;-80
2023/07/21 14:31:01;;;;;;;4.30;2.40;;;;;;;22.08;64.81;98599.73;272885;1269;23511;-80
2023/07/21 14:37:14;;;;;;;3.80;2.60;;;;;;;22.06;65.40;98593.68;273494;1269;22240;-79
2023/07/21 14:43:18;;;;;;;4.20;2.70;;;;;;;22.00;66.28;98585.41;273550;1269;22492;-79
2023/07/21 14:49:21;;;;;;;5.00;3.00;;;;;;;21.99;66.80;98585.06;273581;1269;22369;-80
2023/07/21 14:55:25;;;;;;;3.30;2.50;;;;;;;22.02;67.43;98565.60;273504;1269;22308;-81
2023/07/21 15:01:35;;;;;;;4.40;2.40;;;;;;;22.07;68.06;98557.80;273322;1259;22681;-80
2023/07/21 15:07:40;;;;;;;4.10;2.40;;;;;;;22.12;68.34;98549.23;273488;1259;22946;-78
2023/07/21 15:13:43;;;;;;;4.70;2.60;;;;;;;22.16;68.36;98536.31;273348;1267;22397;-81
2023/07/21 15:19:44;;;;;;;4.30;2.50;;;;;;;22.22;68.38;98523.77;273415;1268;139585;-81
2023/07/21 15:25:47;;;;;;;3.50;2.20;;;;;;;22.30;68.10;98519.20;273385;1269;23133;-80
2023/07/21 15:31:51;;;;;;;3.30;2.30;;;;;;;22.32;67.57;98520.55;273057;1268;22442;-80
2023/07/21 15:37:53;;;;;;;4.20;2.70;;;;;;;22.25;67.97;98514.02;273208;1253;22540;-80
2023/07/21 15:43:54;;;;;;;4.40;2.40;;;;;;;22.20;68.72;98508.81;273235;1256;22221;-80
2023/07/21 15:49:56;;;;;;;4.10;2.50;;;;;;;22.14;68.92;98511.02;273336;1268;22370;-81
2023/07/21 15:55:58;;;;;;;4.40;2.50;;;;;;;22.08;68.62;98514.20;273259;1269;23705;-80
2023/07/21 16:02:01;;;;;;;5.40;2.70;;;;;;;22.03;68.81;98516.64;273048;1269;23554;-79
2023/07/21 16:08:03;;;;;;;3.30;2.70;;;;;;;21.97;69.42;98498.83;273139;1269;23753;-80
2023/07/21 16:14:05;;;;;;;6.20;3.10;;;;;;;21.91;69.68;98485.06;265443;1264;10002049;-81
2023/07/21 16:20:11;;;;;;;3.70;2.60;;;;;;;21.86;70.16;98474.59;273338;1268;22423;-81
2023/07/21 16:26:14;;;;;;;5.00;3.30;;;;;;;21.80;70.57;98466.81;273250;1266;22385;-81
2023/07/21 16:32:16;;;;;;;6.60;3.10;;;;;;;21.75;70.88;98464.39;273155;1268;22385;-81
2023/07/21 16:38:18;;;;;;;5.00;2.90;;;;;;;21.69;71.19;98462.08;272932;1269;22388;-81
2023/07/21 16:44:20;;;;;;;4.10;2.90;;;;;;;21.65;71.45;98459.52;273107;1269;22385;-80
2023/07/21 16:50:22;;;;;;;4.10;2.80;;;;;;;21.60;71.79;98451.71;273099;1269;23115;-80
2023/07/21 16:56:24;;;;;;;7.90;3.50;;;;;;;21.55;72.20;98451.60;273211;1257;22616;-80
2023/07/21 17:02:26;;;;;;;5.80;3.50;;;;;;;21.48;72.24;98440.52;273121;1261;22389;-80
2023/07/21 17:08:27;;;;;;;4.70;2.80;;;;;;;21.41;72.80;98428.49;273183;1259;22550;-80
2023/07/21 17:14:29;;;;;;;3.90;2.60;;;;;;;21.33;72.89;98426.34;272946;1269;22470;-79
2023/07/21 17:20:31;;;;;;;4.60;3.00;;;;;;;21.26;73.22;98424.96;273131;1268;22460;-80
2023/07/21 17:26:41;;;;;;;6.20;3.20;;;;;;;21.20;73.87;98418.79;273005;1269;23525;-80
2023/07/21 17:32:42;;;;;;;3.70;2.70;;;;;;;21.08;74.26;98422.42;272809;1269;22392;-80
2023/07/21 17:38:44;;;;;;;5.80;3.70;;;;;;;21.01;75.09;98424.23;273226;1263;22460;-79
2023/07/21 17:44:46;;;;;;;15.40;8.40;;;;;;;20.98;75.51;98413.95;273073;1269;22881;-80
2023/07/21 17:50:48;;;;;;;18.60;8.80;;;;;;;20.93;75.17;98402.83;273171;1269;22298;-80
2023/07/21 17:56:50;;;;;;;8.70;5.70;;;;;;;20.89;75.92;98403.09;273191;1269;23758;-80
2023/07/21 18:02:52;;;;;;;14.70;8.50;;;;;;;20.72;76.62;98395.40;273244;1269;22428;-80
2023/07/21 18:08:54;;;;;;;12.70;7.20;;;;;;;20.54;76.63;98388.16;273274;1269;22454;-80
2023/07/21 18:14:56;;;;;;;7.30;4.60;;;;;;;20.39;77.21;98382.55;273234;1269;22459;-79
2023/07/21 18:21:06;;;;;;;8.30;5.40;;;;;;;20.31;77.92;98379.69;273045;1269;22627;-80
2023/07/21 18:27:08;;;;;;;11.40;5.70;;;;;;;20.24;78.59;98372.46;273133;1269;22271;-80
2023/07/21 18:33:29;;;;;;;12.00;6.50;;;;;;;20.14;79.06;98363.45;273220;1268;22407;-81
2023/07/21 18:39:38;;;;;;;14.00;5.50;;;;;;;20.00;79.60;98362.38;272362;1269;23265;-80
2023/07/21 18:45:40;;;;;;;13.00;5.30;;;;;;;19.83;80.12;98358.55;273066;1266;22790;-80
2023/07/21 18:51:43;;;;;;;9.70;4.60;;;;;;;19.73;81.26;98369.55;273195;1268;22573;-79
2023/07/21 18:57:52;;;;;;;8.50;5.00;;;;;;;19.68;81.98;98377.81;273202;1269;23362;-80
2023/07/21 19:03:54;;;;;;;10.30;5.40;;;;;;;19.50;82.10;98378.46;273212;1269;22405;-79
2023/07/21 19:09:55;;;;;;;6.90;4.90;;;;;;;19.41;83.34;98373.86;273033;1269;22515;-80
2023/07/21 19:15:57;;;;;;;7.80;4.80;;;;;;;19.33;83.97;98379.36;273230;1259;22441;-79
2023/07/21 19:21:59;;;;;;;8.70;4.70;;;;;;;19.22;84.53;98388.64;273186;1269;22522;-79
2023/07/21 19:28:01;;;;;;;8.10;5.30;;;;;;;19.13;85.34;98391.80;273200;1269;22197;-79
2023/07/21 19:34:05;;;;;;;11.50;6.40;;;;;;;18.96;85.54;98400.59;273228;1269;22212;-79
2023/07/21 19:40:07;;;;;;;11.00;6.80;;;;;;;18.81;86.04;98403.32;273319;1259;22248;-79
2023/07/21 19:46:13;;;;;;;14.40;7.00;;;;;;;18.70;86.19;98404.35;272903;1268;22459;-79
2023/07/21 19:52:15;;;;;;;12.00;7.10;;;;;;;18.47;86.53;98403.27;273378;1269;23185;-79
2023/07/21 19:58:16;;;;;;;11.70;7.40;;;;;;;18.33;87.15;98407.34;272927;1256;22541;-79
2023/07/21 20:04:38;;;;;;;14.00;8.20;;;;;;;18.22;87.75;98406.00;273331;1267;22226;-79
2023/07/21 20:10:40;;;;;;;12.20;7.30;;;;;;;18.09;88.50;98405.66;273215;1269;22408;-79
2023/07/21 20:16:42;;;;;;;13.40;7.50;;;;;;;17.90;89.25;98410.70;273318;1256;22194;-79
2023/07/21 20:22:43;;;;;;;10.20;7.30;;;;;;;17.80;89.63;98419.42;272669;1265;23204;-79
2023/07/21 20:28:45;;;;;;;12.60;7.60;;;;;;;17.72;90.25;98423.54;272117;1269;22584;-79
2023/07/21 20:34:47;;;;;;;11.70;7.30;;;;;;;17.62;91.27;98432.65;272556;1268;22523;-79
2023/07/21 20:40:49;;;;;;;13.30;8.00;;;;;;;17.56;91.45;98439.77;273256;1269;22372;-79
2023/07/21 20:46:51;;;;;;;9.60;6.80;;;;;;;17.43;90.99;98443.08;273223;1257;22203;-79
2023/07/21 20:52:53;;;;;;;9.80;7.60;;;;;;;17.30;91.70;98439.92;273287;1269;22481;-80
2023/07/21 20:58:54;;;;;;;11.80;7.90;;;;;;;17.30;92.71;98435.66;273286;1269;22433;-79
2023/07/21 21:04:56;;;;;;;14.50;7.90;;;;;;;17.33;93.62;98435.89;273329;1269;22316;-78
2023/07/21 21:10:58;;;;;;;10.50;7.30;;;;;;;17.34;93.97;98424.73;273449;1269;22486;-79
2023/07/21 21:16:59;;;;;;;11.10;7.80;;;;;;;17.31;94.63;98415.55;273451;1269;22442;-80
2023/07/21 21:23:01;;;;;;;10.80;7.00;;;;;;;17.30;94.67;98411.44;273471;1269;22392;-80
2023/07/21 21:29:03;;;;;;;11.50;7.10;;;;;;;17.32;95.29;98422.17;273360;1269;23136;-81
2023/07/21 21:35:05;;;;;;;9.70;6.40;;;;;;;17.40;96.42;98426.00;273340;1269;22494;-81
2023/07/21 21:41:16;;;;;;;12.50;6.40;;;;;;;17.46;96.82;98430.91;273333;1259;22449;-79
2023/07/21 21:47:18;;;;;;;8.80;6.50;;;;;;;17.50;97.16;98431.38;273256;1260;22446;-80
2023/07/21 21:53:20;;;;;;;10.60;6.50;;;;;;;17.53;97.43;98436.58;273216;1269;22386;-79
2023/07/21 21:59:22;;;;;;;7.90;6.00;;;;;;;17.55;97.30;98439.15;273425;1259;22404;-79
2023/07/21 22:05:24;;;;;;;10.20;6.30;;;;;;;17.51;97.44;98454.61;273092;1269;22754;-79
2023/07/21 22:11:26;;;;;;;13.10;5.50;;;;;;;17.52;98.17;98483.03;272082;1269;22567;-81
2023/07/21 22:17:28;;;;;;;10.30;7.20;;;;;;;17.42;98.20;98500.57;272627;1263;22307;-79
2023/07/21 22:23:30;;;;;;;10.90;7.40;;;;;;;17.42;99.28;98497.16;273457;1269;23382;-80
2023/07/21 22:29:32;;;;;;;9.10;7.40;;;;;;;17.43;99.54;98486.38;272847;1269;22534;-80
2023/07/21 22:35:33;;;;;;;13.00;7.90;;;;;;;17.43;99.84;98490.90;272916;1269;22399;-79
2023/07/21 22:41:35;;;;;;;11.20;8.00;;;;;;;17.46;100.00;98490.99;273351;1256;22561;-79
2023/07/21 22:47:37;;;;;;;13.40;8.60;;;;;;;17.50;100.00;98483.80;273422;1269;22505;-79
2023/07/21 22:53:42;;;;;;;9.90;7.70;;;;;;;17.51;100.00;98489.95;273268;1269;23477;-79
2023/07/21 22:59:43;;;;;;;10.40;6.70;;;;;;;17.53;100.00;98491.23;273467;1266;22209;-79
2023/07/21 23:05:45;;;;;;;9.50;7.20;;;;;;;17.53;100.00;98496.92;273474;1269;23395;-79
2023/07/21 23:11:48;;;;;;;12.90;7.70;;;;;;;17.55;100.00;98497.91;273250;1259;22380;-80
2023/07/21 23:17:56;;;;;;;9.20;7.70;;;;;;;17.55;100.00;98512.23;273524;1269;22364;-80
2023/07/21 23:23:59;;;;;;;12.30;8.40;;;;;;;17.55;100.00;98524.55;273401;1269;22438;-81
2023/07/21 23:30:11;;;;;;;11.40;7.80;;;;;;;17.52;100.00;98530.62;273476;1268;22509;-80
2023/07/21 23:36:13;;;;;;;14.80;8.80;;;;;;;17.51;100.00;98541.48;273292;1263;22401;-79
2023/07/21 23:42:15;;;;;;;13.90;9.70;;;;;;;17.47;100.00;98545.54;273373;1268;22460;-79
2023/07/21 23:48:16;;;;;;;11.80;9.40;;;;;;;17.43;100.00;98554.61;273339;1262;22370;-79
2023/07/21 23:54:29;;;;;;;12.70;9.00;;;;;;;17.43;100.00;98561.40;273170;1256;22461;-78
